createdAt,value
2023-05-19T00:00:52.366Z,8.20
2023-05-19T00:04:54.905Z,8.20
2023-05-19T00:09:04.498Z,8.00
2023-05-19T00:13:06.527Z,7.90
2023-05-19T00:17:08.908Z,7.80
2023-05-19T00:21:10.726Z,7.70
2023-05-19T00:25:12.496Z,7.60
2023-05-19T00:29:18.386Z,7.50
2023-05-19T00:33:20.172Z,7.40
2023-05-19T00:37:23.194Z,7.30
2023-05-19T00:41:25.020Z,7.20
2023-05-19T00:45:27.326Z,7.10
2023-05-19T00:49:29.057Z,7.00
2023-05-19T00:53:32.896Z,7.00
2023-05-19T00:57:34.772Z,6.90
2023-05-19T01:01:36.889Z,6.90
2023-05-19T01:05:41.728Z,6.70
2023-05-19T01:09:43.778Z,6.70
2023-05-19T01:13:45.961Z,6.60
2023-05-19T01:18:03.415Z,6.50
2023-05-19T01:22:23.876Z,6.50
2023-05-19T01:26:40.904Z,6.40
2023-05-19T01:30:45.070Z,6.20
2023-05-19T01:34:50.833Z,6.20
2023-05-19T01:38:56.008Z,6.20
2023-05-19T01:43:01.031Z,6.20
2023-05-19T01:47:03.576Z,6.20
2023-05-19T01:51:05.559Z,6.00
2023-05-19T01:55:08.115Z,6.00
2023-05-19T01:59:23.806Z,5.90
2023-05-19T02:03:30.090Z,6.00
2023-05-19T02:07:42.556Z,6.00
2023-05-19T02:11:47.417Z,5.90
2023-05-19T02:15:52.149Z,5.90
2023-05-19T02:19:53.888Z,5.90
2023-05-19T02:23:55.624Z,5.90
2023-05-19T02:27:58.570Z,5.80
2023-05-19T02:32:01.533Z,5.80
2023-05-19T02:36:03.521Z,5.80
2023-05-19T02:40:06.169Z,5.80
2023-05-19T02:44:07.972Z,5.90
2023-05-19T02:48:09.765Z,6.00
2023-05-19T02:52:12.147Z,6.20
2023-05-19T02:56:13.905Z,6.40
2023-05-19T03:00:16.125Z,6.50
2023-05-19T03:04:20.166Z,6.60
2023-05-19T03:08:21.994Z,6.60
2023-05-19T03:12:23.729Z,6.70
2023-05-19T03:16:25.594Z,6.70
2023-05-19T03:20:27.311Z,6.60
2023-05-19T03:24:29.134Z,6.60
2023-05-19T03:28:30.904Z,6.50
2023-05-19T03:32:32.882Z,6.50
2023-05-19T03:36:39.526Z,6.50
2023-05-19T03:40:41.740Z,6.50
2023-05-19T03:44:44.594Z,6.40
2023-05-19T03:48:46.288Z,6.40
2023-05-19T03:52:48.763Z,6.40
2023-05-19T03:56:50.535Z,6.30
2023-05-19T04:00:52.271Z,6.30
2023-05-19T04:04:54.156Z,6.40
2023-05-19T04:08:56.125Z,6.40
2023-05-19T04:12:57.904Z,6.40
2023-05-19T04:16:59.931Z,6.40
2023-05-19T04:21:01.723Z,6.50
2023-05-19T04:25:04.686Z,6.60
2023-05-19T04:29:06.423Z,6.70
2023-05-19T04:33:09.262Z,6.90
2023-05-19T04:37:14.014Z,7.20
2023-05-19T04:41:16.422Z,7.40
2023-05-19T04:45:18.430Z,7.70
2023-05-19T04:49:20.696Z,8.00
2023-05-19T04:53:22.416Z,8.40
2023-05-19T04:57:24.190Z,8.80
2023-05-19T05:01:26.271Z,9.20
2023-05-19T05:05:28.737Z,9.40
2023-05-19T05:09:30.668Z,9.80
2023-05-19T05:13:32.795Z,10.00
2023-05-19T05:17:35.536Z,9.80
2023-05-19T05:21:37.647Z,9.80
2023-05-19T05:25:39.627Z,9.90
2023-05-19T05:29:41.445Z,9.70
2023-05-19T05:33:43.877Z,9.70
2023-05-19T05:37:45.810Z,9.50
2023-05-19T05:41:47.530Z,9.50
2023-05-19T05:45:49.347Z,9.60
2023-05-19T05:49:53.487Z,9.70
2023-05-19T05:53:56.298Z,9.60
2023-05-19T05:57:58.634Z,9.70
2023-05-19T06:02:00.641Z,9.80
2023-05-19T06:06:02.489Z,9.80
2023-05-19T06:10:04.827Z,9.90
2023-05-19T06:14:06.550Z,10.10
2023-05-19T06:18:08.433Z,10.60
2023-05-19T06:22:10.264Z,11.30
2023-05-19T06:26:12.019Z,11.60
2023-05-19T06:30:13.975Z,12.30
2023-05-19T06:34:17.597Z,12.80
2023-05-19T06:38:19.368Z,13.50
2023-05-19T06:42:25.394Z,13.60
2023-05-19T06:46:27.275Z,13.80
2023-05-19T06:50:29.054Z,14.90
2023-05-19T06:54:30.906Z,14.50
2023-05-19T06:58:32.717Z,14.60
2023-05-19T07:02:34.548Z,14.30
2023-05-19T07:06:37.101Z,13.80
2023-05-19T07:10:39.246Z,13.60
2023-05-19T07:14:41.160Z,13.70
2023-05-19T07:18:43.011Z,13.40
2023-05-19T07:22:44.824Z,13.50
2023-05-19T07:26:46.627Z,13.80
2023-05-19T07:30:49.769Z,13.90
2023-05-19T07:34:52.207Z,14.40
2023-05-19T07:38:54.003Z,14.50
2023-05-19T07:42:55.970Z,14.30
2023-05-19T07:46:57.942Z,14.40
2023-05-19T07:50:59.748Z,14.20
2023-05-19T07:55:01.496Z,14.20
2023-05-19T07:59:04.546Z,14.20
2023-05-19T08:03:07.813Z,14.30
2023-05-19T08:07:09.676Z,14.50
2023-05-19T08:11:12.310Z,14.70
2023-05-19T08:15:14.342Z,15.10
2023-05-19T08:19:16.316Z,15.50
2023-05-19T08:23:18.333Z,15.90
2023-05-19T08:27:20.075Z,16.00
2023-05-19T08:31:22.594Z,16.40
2023-05-19T08:35:24.494Z,16.30
2023-05-19T08:39:27.239Z,17.40
2023-05-19T08:43:29.283Z,17.70
2023-05-19T08:47:33.093Z,17.40
2023-05-19T08:51:55.932Z,17.40
2023-05-19T08:56:11.010Z,17.60
2023-05-19T09:00:13.383Z,17.80
2023-05-19T09:04:16.786Z,18.10
2023-05-19T09:08:18.641Z,18.50
2023-05-19T09:12:21.010Z,18.60
2023-05-19T09:16:23.159Z,19.00
2023-05-19T09:20:24.880Z,19.40
2023-05-19T09:24:27.020Z,20.50
2023-05-19T09:28:34.514Z,19.90
2023-05-19T09:32:36.273Z,20.30
2023-05-19T09:36:40.427Z,20.70
2023-05-19T09:40:42.169Z,20.20
2023-05-19T09:44:43.979Z,20.80
2023-05-19T09:48:45.803Z,20.00
2023-05-19T09:52:48.169Z,19.80
2023-05-19T09:57:04.067Z,20.10
2023-05-19T10:01:07.487Z,20.00
2023-05-19T10:05:12.485Z,20.30
2023-05-19T10:09:16.226Z,20.50
2023-05-19T10:13:18.371Z,19.70
2023-05-19T10:17:20.447Z,20.10
2023-05-19T10:21:22.257Z,19.90
2023-05-19T10:25:24.059Z,19.50
2023-05-19T10:29:30.093Z,20.00
2023-05-19T10:33:53.276Z,20.10
2023-05-19T10:38:21.075Z,20.20
2023-05-19T10:42:29.380Z,20.60
2023-05-19T10:46:31.711Z,20.80
2023-05-19T10:50:37.625Z,20.20
2023-05-19T10:54:46.129Z,20.50
2023-05-19T10:58:50.910Z,20.70
2023-05-19T11:02:56.382Z,20.70
2023-05-19T11:07:03.636Z,21.10
2023-05-19T11:11:16.519Z,21.30
2023-05-19T11:15:18.373Z,21.40
2023-05-19T11:19:31.284Z,21.50
2023-05-19T11:23:39.845Z,20.90
2023-05-19T11:27:42.270Z,20.70
2023-05-19T11:31:44.525Z,20.40
2023-05-19T11:35:50.513Z,20.60
2023-05-19T11:39:53.207Z,21.10
2023-05-19T11:43:54.975Z,21.80
2023-05-19T11:48:02.521Z,22.10
2023-05-19T11:52:05.161Z,22.30
2023-05-19T11:56:07.326Z,22.20
2023-05-19T12:00:10.277Z,23.00
2023-05-19T12:04:12.020Z,22.70
2023-05-19T12:08:14.225Z,22.80
2023-05-19T12:12:20.870Z,23.50
2023-05-19T12:16:22.939Z,24.20
2023-05-19T12:20:26.631Z,25.40
2023-05-19T12:24:28.519Z,25.00
2023-05-19T12:28:31.288Z,22.20
2023-05-19T12:32:35.666Z,22.20
2023-05-19T12:36:37.693Z,22.60
2023-05-19T12:40:39.446Z,23.10
2023-05-19T12:44:46.776Z,23.50
2023-05-19T12:48:49.028Z,22.40
2023-05-19T12:52:53.765Z,22.90
2023-05-19T12:57:05.629Z,23.70
2023-05-19T13:01:15.370Z,23.10
2023-05-19T13:05:17.314Z,22.10
2023-05-19T13:09:19.485Z,22.50
2023-05-19T13:13:21.902Z,22.40
2023-05-19T13:17:23.668Z,22.80
2023-05-19T13:21:25.442Z,21.70
2023-05-19T13:25:27.851Z,21.40
2023-05-19T13:29:29.661Z,22.10
2023-05-19T13:33:31.943Z,22.20
2023-05-19T13:37:33.835Z,22.20
2023-05-19T13:41:35.655Z,21.50
2023-05-19T13:45:37.436Z,20.80
2023-05-19T13:49:39.334Z,20.90
2023-05-19T13:53:41.275Z,21.10
2023-05-19T13:57:44.258Z,21.40
2023-05-19T14:01:46.112Z,21.80
2023-05-19T14:05:48.502Z,22.40
2023-05-19T14:09:51.090Z,22.70
2023-05-19T14:13:53.171Z,22.70
2023-05-19T14:17:55.218Z,23.10
2023-05-19T14:21:57.552Z,23.80
2023-05-19T14:25:59.330Z,23.50
2023-05-19T14:30:01.117Z,23.10
2023-05-19T14:34:02.854Z,21.60
2023-05-19T14:38:04.791Z,21.10
2023-05-19T14:42:06.519Z,21.50
2023-05-19T14:46:08.390Z,22.80
2023-05-19T14:50:11.126Z,22.30
2023-05-19T14:54:12.893Z,22.20
2023-05-19T14:58:27.464Z,22.80
2023-05-19T15:02:30.332Z,22.70
2023-05-19T15:06:32.095Z,21.60
2023-05-19T15:10:34.139Z,21.60
2023-05-19T15:14:36.024Z,21.20
2023-05-19T15:18:38.050Z,21.00
2023-05-19T15:22:40.123Z,20.60
2023-05-19T15:26:42.019Z,20.10
2023-05-19T15:30:45.023Z,20.10
2023-05-19T15:34:46.887Z,20.00
2023-05-19T15:38:48.733Z,20.10
2023-05-19T15:42:50.447Z,20.00
2023-05-19T15:46:52.310Z,20.10
2023-05-19T15:50:58.053Z,20.10
2023-05-19T15:54:59.851Z,19.90
2023-05-19T15:59:01.667Z,19.60
2023-05-19T16:03:03.660Z,19.50
2023-05-19T16:07:05.728Z,19.40
2023-05-19T16:11:07.588Z,18.90
2023-05-19T16:15:09.839Z,19.10
2023-05-19T16:19:11.696Z,19.00
2023-05-19T16:23:13.463Z,18.90
2023-05-19T16:27:15.228Z,19.20
2023-05-19T16:31:17.054Z,19.20
2023-05-19T16:35:19.084Z,19.10
2023-05-19T16:39:20.881Z,19.10
2023-05-19T16:43:22.598Z,18.90
2023-05-19T16:47:24.394Z,18.90
2023-05-19T16:51:26.136Z,18.80
2023-05-19T16:55:27.958Z,18.80
2023-05-19T16:59:29.667Z,18.70
2023-05-19T17:03:31.884Z,18.50
2023-05-19T17:07:33.750Z,18.50
2023-05-19T17:11:35.463Z,18.50
2023-05-19T17:15:37.420Z,18.60
2023-05-19T17:19:39.183Z,18.50
2023-05-19T17:23:41.466Z,18.40
2023-05-19T17:27:43.211Z,18.40
2023-05-19T17:31:45.018Z,18.20
2023-05-19T17:35:46.812Z,18.10
2023-05-19T17:39:49.103Z,18.30
2023-05-19T17:43:50.970Z,18.20
2023-05-19T17:47:52.735Z,18.20
2023-05-19T17:51:54.693Z,18.10
2023-05-19T17:56:04.493Z,18.00
2023-05-19T18:00:07.488Z,17.90
2023-05-19T18:04:10.000Z,17.80
2023-05-19T18:08:13.120Z,17.70
2023-05-19T18:12:15.505Z,17.60
2023-05-19T18:16:17.298Z,17.70
2023-05-19T18:20:19.325Z,17.50
2023-05-19T18:24:21.088Z,17.40
2023-05-19T18:28:24.031Z,17.20
2023-05-19T18:32:25.965Z,17.10
2023-05-19T18:36:27.732Z,17.00
2023-05-19T18:40:29.528Z,17.10
2023-05-19T18:44:31.709Z,17.00
2023-05-19T18:48:33.598Z,17.00
2023-05-19T18:52:35.421Z,16.80
2023-05-19T18:56:37.424Z,16.70
2023-05-19T19:00:39.303Z,16.60
2023-05-19T19:04:41.401Z,16.60
2023-05-19T19:08:44.073Z,16.30
2023-05-19T19:12:45.859Z,16.30
2023-05-19T19:16:47.625Z,16.20
2023-05-19T19:20:49.380Z,16.00
2023-05-19T19:24:51.112Z,15.90
2023-05-19T19:28:52.960Z,15.60
2023-05-19T19:32:56.959Z,15.50
2023-05-19T19:36:58.782Z,15.30
2023-05-19T19:41:00.698Z,15.20
2023-05-19T19:45:02.572Z,14.90
2023-05-19T19:49:04.262Z,14.80
2023-05-19T19:53:06.148Z,14.70
2023-05-19T19:57:07.915Z,14.60
2023-05-19T20:01:10.374Z,14.50
2023-05-19T20:05:12.492Z,14.30
2023-05-19T20:09:14.301Z,14.20
2023-05-19T20:13:16.775Z,14.10
2023-05-19T20:17:18.641Z,13.90
2023-05-19T20:21:20.487Z,13.90
2023-05-19T20:25:22.288Z,13.80
2023-05-19T20:29:24.176Z,13.60
2023-05-19T20:33:25.998Z,13.60
2023-05-19T20:37:27.799Z,13.70
2023-05-19T20:41:29.576Z,13.70
2023-05-19T20:45:31.510Z,13.60
2023-05-19T20:49:33.812Z,13.50
2023-05-19T20:53:36.395Z,13.60
2023-05-19T20:57:38.155Z,13.60
2023-05-19T21:01:40.113Z,13.50
2023-05-19T21:05:41.958Z,13.50
2023-05-19T21:09:46.475Z,13.50
2023-05-19T21:13:48.280Z,13.40
2023-05-19T21:17:50.072Z,13.30
2023-05-19T21:21:51.862Z,13.40
2023-05-19T21:25:53.563Z,13.30
2023-05-19T21:29:55.426Z,13.20
2023-05-19T21:33:57.542Z,13.20
2023-05-19T21:38:08.972Z,13.10
2023-05-19T21:42:17.765Z,13.10
2023-05-19T21:46:19.666Z,13.00
2023-05-19T21:50:21.495Z,12.80
2023-05-19T21:54:23.210Z,12.90
2023-05-19T21:58:25.638Z,12.70
2023-05-19T22:02:27.492Z,12.60
2023-05-19T22:06:29.190Z,12.60
2023-05-19T22:10:31.106Z,12.60
2023-05-19T22:14:32.864Z,12.60
2023-05-19T22:18:34.682Z,12.60
2023-05-19T22:22:36.563Z,12.50
2023-05-19T22:26:42.412Z,12.50
2023-05-19T22:30:44.239Z,12.40
2023-05-19T22:34:46.401Z,12.30
2023-05-19T22:38:48.226Z,12.30
2023-05-19T22:42:50.002Z,12.20
2023-05-19T22:46:51.741Z,12.10
2023-05-19T22:50:53.680Z,12.10
2023-05-19T22:54:55.563Z,12.00
2023-05-19T22:58:57.382Z,11.90
2023-05-19T23:02:59.341Z,11.90
2023-05-19T23:07:01.303Z,11.90
2023-05-19T23:11:03.036Z,11.90
2023-05-19T23:15:05.310Z,11.80
2023-05-19T23:19:07.342Z,11.80
2023-05-19T23:23:09.139Z,11.90
2023-05-19T23:27:10.893Z,11.70
2023-05-19T23:31:12.716Z,11.70
2023-05-19T23:35:16.566Z,11.60
2023-05-19T23:39:18.386Z,11.50
2023-05-19T23:43:20.125Z,11.50
2023-05-19T23:47:21.903Z,11.50
2023-05-19T23:51:23.645Z,11.60
2023-05-19T23:55:25.402Z,11.50
2023-05-19T23:59:27.505Z,11.50
